createdAt,value
2019-04-05T00:00:10.121Z,0
2019-04-05T00:01:12.544Z,0
2019-04-05T00:02:14.664Z,0
2019-04-05T00:03:17.060Z,0
2019-04-05T00:04:19.162Z,0
2019-04-05T00:05:21.253Z,0
2019-04-05T00:06:23.613Z,0
2019-04-05T00:07:25.706Z,0
2019-04-05T00:08:27.873Z,0
2019-04-05T00:09:29.961Z,0
2019-04-05T00:10:32.057Z,0
2019-04-05T00:11:34.547Z,0
2019-04-05T00:12:36.630Z,0
2019-04-05T00:13:38.747Z,0
2019-04-05T00:14:40.846Z,0
2019-04-05T00:15:42.953Z,0
2019-04-05T00:16:45.031Z,0
2019-04-05T00:17:47.131Z,0
2019-04-05T00:18:49.216Z,0
2019-04-05T00:19:51.301Z,0
2019-04-05T00:20:53.404Z,0
2019-04-05T00:21:55.493Z,0
2019-04-05T00:22:57.595Z,0
2019-04-05T00:23:59.696Z,0
2019-04-05T00:25:02.149Z,0
2019-04-05T00:26:04.250Z,0
2019-04-05T00:27:06.374Z,0
2019-04-05T00:28:08.469Z,0
2019-04-05T00:29:10.842Z,0
2019-04-05T00:30:12.968Z,0
2019-04-05T00:31:15.054Z,0
2019-04-05T00:32:17.159Z,0
2019-04-05T00:33:19.268Z,0
2019-04-05T00:34:21.358Z,0
2019-04-05T00:35:23.444Z,0
2019-04-05T00:36:25.539Z,0
2019-04-05T00:37:27.979Z,0
2019-04-05T00:38:30.367Z,0
2019-04-05T00:39:32.456Z,0
2019-04-05T00:40:34.827Z,0
2019-04-05T00:41:36.933Z,0
2019-04-05T00:42:39.332Z,0
2019-04-05T00:43:41.440Z,0
2019-04-05T00:44:43.923Z,0
2019-04-05T00:45:46.013Z,0
2019-04-05T00:46:48.402Z,0
2019-04-05T00:47:50.491Z,0
2019-04-05T00:48:52.880Z,0
2019-04-05T00:49:54.973Z,0
2019-04-05T00:50:57.076Z,0
2019-04-05T00:51:59.165Z,0
2019-04-05T00:53:01.250Z,0
2019-04-05T00:54:03.358Z,0
2019-04-05T00:55:05.439Z,0
2019-04-05T00:56:07.945Z,0
2019-04-05T00:57:10.044Z,0
2019-04-05T00:58:12.202Z,0
2019-04-05T00:59:14.279Z,0
2019-04-05T01:00:16.394Z,0
2019-04-05T01:01:18.867Z,0
2019-04-05T01:02:20.962Z,0
2019-04-05T01:03:23.074Z,0
2019-04-05T01:04:25.158Z,0
2019-04-05T01:05:27.281Z,0
2019-04-05T01:06:29.685Z,0
2019-04-05T01:07:31.784Z,0
2019-04-05T01:08:33.884Z,0
2019-04-05T01:09:36.542Z,0
2019-04-05T01:10:38.626Z,0
2019-04-05T01:11:41.009Z,0
2019-04-05T01:12:43.126Z,0
2019-04-05T01:13:45.236Z,0
2019-04-05T01:14:47.616Z,0
2019-04-05T01:15:49.977Z,0
2019-04-05T01:16:52.359Z,0
2019-04-05T01:17:54.454Z,0
2019-04-05T01:18:56.530Z,0
2019-04-05T01:19:58.641Z,0
2019-04-05T01:21:01.385Z,0
2019-04-05T01:22:03.787Z,0
2019-04-05T01:23:05.881Z,0
2019-04-05T01:24:08.022Z,0
2019-04-05T01:25:10.106Z,0
2019-04-05T01:26:12.201Z,0
2019-04-05T01:27:14.297Z,0
2019-04-05T01:28:16.378Z,0
2019-04-05T01:29:18.477Z,0
2019-04-05T01:30:20.571Z,0
2019-04-05T01:31:22.951Z,0
2019-04-05T01:32:25.046Z,0
2019-04-05T01:33:27.421Z,0
2019-04-05T01:34:29.518Z,0
2019-04-05T01:35:31.599Z,0
2019-04-05T01:36:33.704Z,0
2019-04-05T01:37:35.786Z,0
2019-04-05T01:38:37.879Z,0
2019-04-05T01:39:39.986Z,0
2019-04-05T01:40:42.070Z,0
2019-04-05T01:41:44.151Z,0
2019-04-05T01:42:46.241Z,0
2019-04-05T01:43:48.320Z,0
2019-04-05T01:44:51.909Z,0
2019-04-05T01:45:54.394Z,0
2019-04-05T01:46:57.117Z,0
2019-04-05T01:47:59.190Z,0
2019-04-05T01:49:01.285Z,0
2019-04-05T01:50:03.371Z,0
2019-04-05T01:51:05.456Z,0
2019-04-05T01:52:07.865Z,0
2019-04-05T01:53:09.931Z,0
2019-04-05T01:54:12.024Z,0
2019-04-05T01:55:14.115Z,0
2019-04-05T01:56:16.233Z,0
2019-04-05T01:57:18.311Z,0
2019-04-05T01:58:20.405Z,0
2019-04-05T01:59:22.508Z,0
2019-04-05T02:00:24.590Z,0
2019-04-05T02:01:26.982Z,0
2019-04-05T02:02:29.058Z,0
2019-04-05T02:03:31.157Z,0
2019-04-05T02:04:33.244Z,0
2019-04-05T02:05:35.338Z,0
2019-04-05T02:06:37.440Z,0
2019-04-05T02:07:39.598Z,0
2019-04-05T02:08:41.697Z,0
2019-04-05T02:09:44.057Z,0
2019-04-05T02:10:46.158Z,0
2019-04-05T02:11:48.925Z,0
2019-04-05T02:12:51.016Z,0
2019-04-05T02:13:53.110Z,0
2019-04-05T02:14:55.213Z,0
2019-04-05T02:16:05.911Z,0
2019-04-05T02:17:09.301Z,0
2019-04-05T02:18:11.402Z,0
2019-04-05T02:19:13.479Z,0
2019-04-05T02:20:15.567Z,0
2019-04-05T02:21:17.662Z,0
2019-04-05T02:22:20.129Z,0
2019-04-05T02:23:22.507Z,0
2019-04-05T02:24:25.164Z,0
2019-04-05T02:25:27.252Z,0
2019-04-05T02:26:29.356Z,0
2019-04-05T02:27:31.437Z,0
2019-04-05T02:28:33.922Z,0
2019-04-05T02:29:35.997Z,0
2019-04-05T02:30:38.096Z,0
2019-04-05T02:31:40.215Z,0
2019-04-05T02:32:42.327Z,0
2019-04-05T02:33:44.431Z,0
2019-04-05T02:34:47.211Z,0
2019-04-05T02:35:49.885Z,0
2019-04-05T02:36:52.288Z,0
2019-04-05T02:37:54.671Z,0
2019-04-05T02:38:56.788Z,0
2019-04-05T02:39:58.885Z,0
2019-04-05T02:41:01.306Z,0
2019-04-05T02:42:04.010Z,0
2019-04-05T02:43:06.160Z,0
2019-04-05T02:44:08.685Z,0
2019-04-05T02:45:11.192Z,0
2019-04-05T02:46:23.022Z,0
2019-04-05T02:47:26.431Z,0
2019-04-05T02:48:28.562Z,0
2019-04-05T02:49:30.962Z,0
2019-04-05T02:50:33.054Z,0
2019-04-05T02:51:35.220Z,0
2019-04-05T02:52:37.294Z,0
2019-04-05T02:53:39.653Z,0
2019-04-05T02:54:42.392Z,0
2019-04-05T02:55:44.510Z,0
2019-04-05T02:56:46.590Z,0
2019-04-05T02:57:49.225Z,0
2019-04-05T02:58:51.270Z,0
2019-04-05T02:59:53.742Z,0
2019-04-05T03:00:56.347Z,0
2019-04-05T03:01:59.507Z,0
2019-04-05T03:03:02.506Z,0
2019-04-05T03:04:04.585Z,0
2019-04-05T03:05:07.354Z,0
2019-04-05T03:06:09.717Z,0
2019-04-05T03:07:11.837Z,0
2019-04-05T03:08:14.481Z,0
2019-04-05T03:09:16.863Z,0
2019-04-05T03:10:18.912Z,0
2019-04-05T03:11:21.259Z,0
2019-04-05T03:12:23.618Z,0
2019-04-05T03:13:25.649Z,0
2019-04-05T03:14:28.087Z,0
2019-04-05T03:15:30.569Z,0
2019-04-05T03:16:40.533Z,0
2019-04-05T03:17:45.027Z,0
2019-04-05T03:18:47.485Z,0
2019-04-05T03:19:49.821Z,0
2019-04-05T03:20:51.881Z,0
2019-04-05T03:21:54.269Z,0
2019-04-05T03:22:56.333Z,0
2019-04-05T03:23:58.393Z,0
2019-04-05T03:25:00.826Z,0
2019-04-05T03:26:03.090Z,0
2019-04-05T03:27:05.170Z,0
2019-04-05T03:28:07.514Z,0
2019-04-05T03:29:09.567Z,0
2019-04-05T03:30:12.222Z,0
2019-04-05T03:31:14.583Z,0
2019-04-05T03:32:17.405Z,0
2019-04-05T03:33:19.765Z,0
2019-04-05T03:34:22.221Z,0
2019-04-05T03:35:24.313Z,0
2019-04-05T03:36:27.167Z,0
2019-04-05T03:37:29.228Z,0
2019-04-05T03:38:31.274Z,0
2019-04-05T03:39:33.318Z,0
2019-04-05T03:40:35.387Z,0
2019-04-05T03:41:38.099Z,0
2019-04-05T03:42:40.163Z,0
2019-04-05T03:43:42.875Z,0
2019-04-05T03:44:45.209Z,0
2019-04-05T03:45:47.521Z,0
2019-04-05T03:46:56.700Z,0
2019-04-05T03:48:00.671Z,0
2019-04-05T03:49:03.050Z,0
2019-04-05T03:50:05.759Z,0
2019-04-05T03:51:08.197Z,0
2019-04-05T03:52:10.939Z,0
2019-04-05T03:53:12.977Z,0
2019-04-05T03:54:15.029Z,0
2019-04-05T03:55:17.141Z,0
2019-04-05T03:56:19.253Z,0
2019-04-05T03:57:21.300Z,0
2019-04-05T03:58:23.368Z,0
2019-04-05T03:59:25.730Z,0
2019-04-05T04:00:28.101Z,0
2019-04-05T04:01:30.555Z,0
2019-04-05T04:02:32.583Z,0
2019-04-05T04:03:34.918Z,0
2019-04-05T04:04:37.266Z,4
2019-04-05T04:05:39.892Z,4
2019-04-05T04:06:42.624Z,0
2019-04-05T04:07:44.688Z,4
2019-04-05T04:08:47.038Z,4
2019-04-05T04:09:49.465Z,4
2019-04-05T04:10:51.642Z,4
2019-04-05T04:11:53.678Z,4
2019-04-05T04:12:56.126Z,8
2019-04-05T04:13:58.564Z,8
2019-04-05T04:15:00.601Z,8
2019-04-05T04:16:02.691Z,12
2019-04-05T04:17:12.415Z,12
2019-04-05T04:18:16.204Z,16
2019-04-05T04:19:18.507Z,20
2019-04-05T04:20:20.667Z,24
2019-04-05T04:21:22.704Z,24
2019-04-05T04:22:24.843Z,28
2019-04-05T04:23:26.934Z,36
2019-04-05T04:24:29.255Z,40
2019-04-05T04:25:31.583Z,52
2019-04-05T04:26:34.300Z,60
2019-04-05T04:27:36.343Z,72
2019-04-05T04:28:39.161Z,84
2019-04-05T04:29:41.885Z,92
2019-04-05T04:30:43.967Z,104
2019-04-05T04:31:46.472Z,116
2019-04-05T04:32:48.856Z,132
2019-04-05T04:33:50.913Z,144
2019-04-05T04:34:53.241Z,160
2019-04-05T04:35:55.330Z,176
2019-04-05T04:36:57.450Z,196
2019-04-05T04:37:59.495Z,216
2019-04-05T04:39:02.118Z,236
2019-04-05T04:40:04.165Z,264
2019-04-05T04:41:06.218Z,288
2019-04-05T04:42:08.819Z,316
2019-04-05T04:43:11.148Z,344
2019-04-05T04:44:13.241Z,380
2019-04-05T04:45:15.286Z,416
2019-04-05T04:46:17.348Z,452
2019-04-05T04:47:26.009Z,496
2019-04-05T04:48:30.071Z,544
2019-04-05T04:49:32.396Z,596
2019-04-05T04:50:34.455Z,640
2019-04-05T04:51:36.485Z,688
2019-04-05T04:52:38.526Z,736
2019-04-05T04:53:40.559Z,780
2019-04-05T04:54:42.591Z,832
2019-04-05T04:55:44.954Z,888
2019-04-05T04:56:46.977Z,948
2019-04-05T04:57:49.016Z,1016
2019-04-05T04:58:51.347Z,1092
2019-04-05T04:59:53.380Z,1176
2019-04-05T05:00:55.718Z,1268
2019-04-05T05:01:57.765Z,1360
2019-04-05T05:03:00.094Z,1448
2019-04-05T05:04:02.516Z,1532
2019-04-05T05:05:04.944Z,1616
2019-04-05T05:06:07.373Z,1704
2019-04-05T05:07:10.189Z,1800
2019-04-05T05:08:12.220Z,1872
2019-04-05T05:09:14.932Z,1948
2019-04-05T05:10:16.959Z,2024
2019-04-05T05:11:18.992Z,2096
2019-04-05T05:12:21.437Z,2188
2019-04-05T05:13:23.464Z,2292
2019-04-05T05:14:25.557Z,2392
2019-04-05T05:15:27.894Z,2504
2019-04-05T05:16:30.336Z,2620
2019-04-05T05:17:38.121Z,2736
2019-04-05T05:18:41.103Z,2868
2019-04-05T05:19:43.151Z,2988
2019-04-05T05:20:45.173Z,3124
2019-04-05T05:21:47.791Z,3212
2019-04-05T05:22:49.811Z,3220
2019-04-05T05:23:51.846Z,3228
2019-04-05T05:24:54.547Z,3284
2019-04-05T05:25:56.596Z,3344
2019-04-05T05:26:58.634Z,3384
2019-04-05T05:28:00.665Z,3404
2019-04-05T05:29:03.126Z,3428
2019-04-05T05:30:05.169Z,3476
2019-04-05T05:31:07.270Z,3516
2019-04-05T05:32:09.731Z,3544
2019-04-05T05:33:11.902Z,3572
2019-04-05T05:34:14.342Z,3592
2019-04-05T05:35:16.412Z,3632
2019-04-05T05:36:18.728Z,3700
2019-04-05T05:37:21.102Z,3748
2019-04-05T05:38:23.142Z,3800
2019-04-05T05:39:25.168Z,3864
2019-04-05T05:40:34.499Z,3932
2019-04-05T05:41:37.828Z,3960
2019-04-05T05:42:40.259Z,3980
2019-04-05T05:43:42.298Z,3976
2019-04-05T05:44:44.344Z,3952
2019-04-05T05:45:46.774Z,3904
2019-04-05T05:46:48.795Z,3836
2019-04-05T05:47:52.296Z,3912
2019-04-05T05:48:54.836Z,3848
2019-04-05T05:49:57.156Z,3852
2019-04-05T05:50:59.177Z,3736
2019-04-05T05:52:01.212Z,3728
2019-04-05T05:53:03.246Z,3672
2019-04-05T05:54:05.298Z,3608
2019-04-05T05:55:07.638Z,3392
2019-04-05T05:56:09.695Z,3572
2019-04-05T05:57:11.728Z,3572
2019-04-05T05:58:13.761Z,3456
2019-04-05T05:59:15.809Z,3400
2019-04-05T06:00:17.831Z,3440
2019-04-05T06:01:20.165Z,3568
2019-04-05T06:02:22.263Z,3612
2019-04-05T06:03:24.286Z,3500
2019-04-05T06:04:26.349Z,3488
2019-04-05T06:05:28.673Z,3412
2019-04-05T06:06:30.693Z,3468
2019-04-05T06:07:32.737Z,3592
2019-04-05T06:08:34.777Z,3616
2019-04-05T06:09:36.809Z,3780
2019-04-05T06:10:38.895Z,3844
2019-04-05T06:11:40.927Z,3932
2019-04-05T06:12:42.950Z,3956
2019-04-05T06:13:44.982Z,3992
2019-04-05T06:14:47.027Z,4056
2019-04-05T06:15:49.054Z,4116
2019-04-05T06:16:51.097Z,4220
2019-04-05T06:18:04.062Z,4232
2019-04-05T06:19:07.589Z,4240
2019-04-05T06:20:09.897Z,4448
2019-04-05T06:21:11.954Z,4596
2019-04-05T06:22:13.989Z,4528
2019-04-05T06:23:16.026Z,4672
2019-04-05T06:24:18.040Z,4780
2019-04-05T06:25:20.088Z,5064
2019-04-05T06:26:23.126Z,4844
2019-04-05T06:27:25.156Z,4960
2019-04-05T06:28:27.559Z,4936
2019-04-05T06:29:30.321Z,5128
2019-04-05T06:30:32.636Z,5320
2019-04-05T06:31:35.234Z,5544
2019-04-05T06:32:37.410Z,5504
2019-04-05T06:33:39.437Z,5720
2019-04-05T06:34:41.477Z,5768
2019-04-05T06:35:43.512Z,5756
2019-04-05T06:36:45.533Z,5624
2019-04-05T06:37:47.865Z,5664
2019-04-05T06:38:50.303Z,5624
2019-04-05T06:39:52.606Z,5668
2019-04-05T06:40:54.699Z,5396
2019-04-05T06:41:56.738Z,5316
2019-04-05T06:42:58.769Z,5572
2019-04-05T06:44:01.200Z,5660
2019-04-05T06:45:03.572Z,5784
2019-04-05T06:46:05.607Z,6072
2019-04-05T06:47:08.585Z,6068
2019-04-05T06:48:18.785Z,6336
2019-04-05T06:49:22.115Z,6680
2019-04-05T06:50:24.163Z,7036
2019-04-05T06:51:26.199Z,7540
2019-04-05T06:52:28.224Z,7892
2019-04-05T06:53:30.275Z,8044
2019-04-05T06:54:32.310Z,7952
2019-04-05T06:55:34.350Z,8020
2019-04-05T06:56:36.383Z,8748
2019-04-05T06:57:39.109Z,8468
2019-04-05T06:58:41.246Z,8184
2019-04-05T06:59:43.288Z,8056
2019-04-05T07:00:56.313Z,7944
2019-04-05T07:01:59.506Z,7656
2019-04-05T07:03:01.880Z,7900
2019-04-05T07:04:04.718Z,8964
2019-04-05T07:05:07.043Z,9072
2019-04-05T07:06:09.348Z,8820
2019-04-05T07:07:11.672Z,8752
2019-04-05T07:08:13.995Z,8432
2019-04-05T07:09:19.467Z,8420
2019-04-05T07:10:21.802Z,8856
2019-04-05T07:11:23.832Z,9656
2019-04-05T07:12:25.865Z,9936
2019-04-05T07:13:27.916Z,9740
2019-04-05T07:14:29.956Z,9648
2019-04-05T07:15:32.011Z,10108
2019-04-05T07:16:34.055Z,10632
2019-04-05T07:17:36.079Z,10764
2019-04-05T07:18:38.117Z,10208
2019-04-05T07:19:40.162Z,9616
2019-04-05T07:20:42.198Z,9720
2019-04-05T07:21:44.224Z,10184
2019-04-05T07:22:46.267Z,10360
2019-04-05T07:23:48.362Z,10240
2019-04-05T07:24:50.412Z,10720
2019-04-05T07:25:52.457Z,11108
2019-04-05T07:26:54.476Z,11368
2019-04-05T07:27:56.910Z,11740
2019-04-05T07:28:58.945Z,12460
2019-04-05T07:30:01.270Z,12148
2019-04-05T07:31:03.602Z,12460
2019-04-05T07:32:05.644Z,12132
2019-04-05T07:33:07.961Z,11660
2019-04-05T07:34:09.994Z,11736
2019-04-05T07:35:12.031Z,11988
2019-04-05T07:36:14.081Z,11532
2019-04-05T07:37:16.164Z,11200
2019-04-05T07:38:18.519Z,10476
2019-04-05T07:39:20.840Z,10448
2019-04-05T07:40:23.165Z,10812
2019-04-05T07:41:25.492Z,10864
2019-04-05T07:42:28.225Z,11084
2019-04-05T07:43:30.664Z,11440
2019-04-05T07:44:32.686Z,12012
2019-04-05T07:45:34.751Z,11880
2019-04-05T07:46:36.796Z,11612
2019-04-05T07:47:38.829Z,11660
2019-04-05T07:48:44.887Z,11788
2019-04-05T07:49:48.259Z,11992
2019-04-05T07:50:50.312Z,12944
2019-04-05T07:51:52.742Z,14364
2019-04-05T07:52:54.787Z,15548
2019-04-05T07:53:57.209Z,16868
2019-04-05T07:54:59.246Z,18464
2019-04-05T07:56:01.291Z,18336
2019-04-05T07:57:03.346Z,18080
2019-04-05T07:58:05.396Z,17460
2019-04-05T07:59:07.467Z,17408
2019-04-05T08:00:09.489Z,16720
2019-04-05T08:01:11.599Z,16500
2019-04-05T08:02:13.632Z,16480
2019-04-05T08:03:15.966Z,16044
2019-04-05T08:04:18.000Z,15816
2019-04-05T08:05:20.467Z,15528
2019-04-05T08:06:22.513Z,16600
2019-04-05T08:07:24.610Z,16960
2019-04-05T08:08:26.662Z,19040
2019-04-05T08:09:28.694Z,20896
2019-04-05T08:10:30.750Z,22784
2019-04-05T08:11:32.807Z,25472
2019-04-05T08:12:34.871Z,26720
2019-04-05T08:13:36.900Z,26304
2019-04-05T08:14:38.941Z,23648
2019-04-05T08:15:41.068Z,22304
2019-04-05T08:16:43.089Z,19232
2019-04-05T08:17:45.145Z,17472
2019-04-05T08:18:56.912Z,17652
2019-04-05T08:20:00.597Z,16512
2019-04-05T08:21:02.642Z,16240
2019-04-05T08:22:04.981Z,14196
2019-04-05T08:23:07.032Z,12692
2019-04-05T08:24:09.657Z,13148
2019-04-05T08:25:12.313Z,14260
2019-04-05T08:26:14.369Z,16580
2019-04-05T08:27:16.485Z,18656
2019-04-05T08:28:18.526Z,19712
2019-04-05T08:29:20.839Z,21344
2019-04-05T08:30:22.880Z,25984
2019-04-05T08:31:25.301Z,31648
2019-04-05T08:32:27.632Z,35296
2019-04-05T08:33:29.681Z,32640
2019-04-05T08:34:31.780Z,40896
2019-04-05T08:35:33.826Z,29824
2019-04-05T08:36:36.251Z,31456
2019-04-05T08:37:38.304Z,42144
2019-04-05T08:38:40.720Z,44832
2019-04-05T08:39:42.766Z,59072
2019-04-05T08:40:44.826Z,64416
2019-04-05T08:41:47.163Z,63200
2019-04-05T08:42:49.213Z,69056
2019-04-05T08:43:51.542Z,64288
2019-04-05T08:44:53.872Z,62240
2019-04-05T08:45:55.905Z,59808
2019-04-05T08:46:57.958Z,54944
2019-04-05T08:48:00.288Z,52448
2019-04-05T08:49:10.332Z,54528
2019-04-05T08:50:14.044Z,54016
2019-04-05T08:51:16.080Z,55488
2019-04-05T08:52:18.127Z,58912
2019-04-05T08:53:20.165Z,61920
2019-04-05T08:54:32.194Z,61984
2019-04-05T08:55:38.930Z,58304
2019-04-05T08:56:40.982Z,59040
2019-04-05T08:57:43.712Z,63424
2019-04-05T08:58:48.893Z,64480
2019-04-05T08:59:53.255Z,58112
2019-04-05T09:00:55.444Z,63456
2019-04-05T09:01:57.539Z,66080
2019-04-05T09:02:59.573Z,68544
2019-04-05T09:04:01.631Z,69184
2019-04-05T09:05:03.687Z,68832
2019-04-05T09:06:05.735Z,66560
2019-04-05T09:07:07.794Z,67968
2019-04-05T09:08:09.910Z,67712
2019-04-05T09:09:11.958Z,66912
2019-04-05T09:10:13.999Z,67296
2019-04-05T09:11:16.070Z,66496
2019-04-05T09:12:18.410Z,69664
2019-04-05T09:13:20.462Z,67840
2019-04-05T09:14:22.516Z,71648
2019-04-05T09:15:24.546Z,68736
2019-04-05T09:16:26.597Z,71680
2019-04-05T09:17:28.926Z,73536
2019-04-05T09:18:30.981Z,72000
2019-04-05T09:19:33.017Z,69472
2019-04-05T09:20:35.070Z,71616
2019-04-05T09:21:40.375Z,69024
2019-04-05T09:22:43.099Z,69376
2019-04-05T09:23:45.165Z,71104
2019-04-05T09:24:47.201Z,73376
2019-04-05T09:25:49.687Z,76064
2019-04-05T09:26:54.069Z,78080
2019-04-05T09:27:56.742Z,75232
2019-04-05T09:28:58.786Z,73920
2019-04-05T09:30:01.226Z,74848
2019-04-05T09:31:03.544Z,74752
2019-04-05T09:32:05.879Z,76544
2019-04-05T09:33:08.218Z,76352
2019-04-05T09:34:10.550Z,81376
2019-04-05T09:35:12.634Z,82496
2019-04-05T09:36:14.726Z,76480
2019-04-05T09:37:17.064Z,76352
2019-04-05T09:38:19.113Z,77312
2019-04-05T09:39:21.195Z,77248
2019-04-05T09:40:24.115Z,80416
2019-04-05T09:41:26.743Z,83104
2019-04-05T09:42:28.797Z,78528
2019-04-05T09:43:30.868Z,55712
2019-04-05T09:44:32.905Z,42720
2019-04-05T09:45:35.370Z,37408
2019-04-05T09:46:46.318Z,41088
2019-04-05T09:47:53.677Z,35872
2019-04-05T09:48:55.996Z,36832
2019-04-05T09:49:58.401Z,32096
2019-04-05T09:51:00.542Z,29440
2019-04-05T09:52:02.878Z,29312
2019-04-05T09:53:06.011Z,28448
2019-04-05T09:54:08.070Z,30592
2019-04-05T09:55:10.958Z,35424
2019-04-05T09:56:13.776Z,41952
2019-04-05T09:57:16.001Z,43936
2019-04-05T09:58:18.341Z,36384
2019-04-05T09:59:20.405Z,34048
2019-04-05T10:00:22.456Z,32512
2019-04-05T10:01:24.747Z,33536
2019-04-05T10:02:26.805Z,34624
2019-04-05T10:03:28.995Z,42048
2019-04-05T10:04:31.393Z,52544
2019-04-05T10:05:33.606Z,48512
2019-04-05T10:06:35.862Z,58624
2019-04-05T10:07:48.629Z,61152
2019-04-05T10:08:57.709Z,58176
2019-04-05T10:09:59.909Z,57696
2019-04-05T10:11:02.011Z,58432
2019-04-05T10:12:04.595Z,58112
2019-04-05T10:13:09.574Z,56960
2019-04-05T10:14:12.291Z,64384
2019-04-05T10:15:14.554Z,73088
2019-04-05T10:16:16.600Z,75008
2019-04-05T10:17:19.243Z,72352
2019-04-05T10:18:21.589Z,72544
2019-04-05T10:19:23.790Z,71776
2019-04-05T10:20:25.854Z,72480
2019-04-05T10:21:27.987Z,78656
2019-04-05T10:22:30.234Z,81472
2019-04-05T10:23:32.306Z,78208
2019-04-05T10:24:34.460Z,76960
2019-04-05T10:25:36.581Z,56896
2019-04-05T10:26:39.047Z,49184
2019-04-05T10:27:41.102Z,41984
2019-04-05T10:28:43.316Z,40512
2019-04-05T10:29:45.508Z,40032
2019-04-05T10:30:52.014Z,48256
2019-04-05T10:31:54.462Z,58720
2019-04-05T10:32:56.818Z,64576
2019-04-05T10:33:59.347Z,62944
2019-04-05T10:35:01.398Z,58400
2019-04-05T10:36:04.014Z,59200
2019-04-05T10:37:06.358Z,65248
2019-04-05T10:38:08.589Z,73536
2019-04-05T10:39:10.944Z,84416
2019-04-05T10:40:13.577Z,91200
2019-04-05T10:41:15.656Z,91136
2019-04-05T10:42:17.763Z,87872
2019-04-05T10:43:20.508Z,84224
2019-04-05T10:44:22.600Z,77440
2019-04-05T10:45:24.750Z,73152
2019-04-05T10:46:26.810Z,68192
2019-04-05T10:47:29.074Z,64864
2019-04-05T10:48:31.173Z,64832
2019-04-05T10:49:36.550Z,67840
2019-04-05T10:50:38.740Z,66720
2019-04-05T10:51:41.068Z,66208
2019-04-05T10:52:43.616Z,61600
2019-04-05T10:53:45.757Z,60672
2019-04-05T10:54:47.851Z,52192
2019-04-05T10:55:50.042Z,51104
2019-04-05T10:56:52.090Z,47488
2019-04-05T10:57:54.477Z,45952
2019-04-05T10:58:56.521Z,49088
2019-04-05T10:59:58.740Z,56544
2019-04-05T11:01:00.814Z,65568
2019-04-05T11:02:03.003Z,66432
2019-04-05T11:03:05.359Z,65472
2019-04-05T11:04:07.446Z,59072
2019-04-05T11:05:09.876Z,62592
2019-04-05T11:06:11.933Z,57664
2019-04-05T11:07:14.191Z,58080
2019-04-05T11:08:16.341Z,58720
2019-04-05T11:09:18.512Z,59392
2019-04-05T11:10:20.603Z,70112
2019-04-05T11:11:22.698Z,63360
2019-04-05T11:12:25.119Z,60480
2019-04-05T11:13:27.162Z,67968
2019-04-05T11:14:29.480Z,64448
2019-04-05T11:15:31.747Z,59680
2019-04-05T11:16:33.944Z,62976
2019-04-05T11:17:36.016Z,62464
2019-04-05T11:18:38.071Z,70848
2019-04-05T11:19:40.187Z,67680
2019-04-05T11:20:42.284Z,76096
2019-04-05T11:21:47.818Z,74240
2019-04-05T11:22:54.744Z,76224
2019-04-05T11:23:56.790Z,79296
2019-04-05T11:24:58.842Z,79296
2019-04-05T11:26:00.895Z,75360
2019-04-05T11:27:03.276Z,75008
2019-04-05T11:28:08.982Z,76160
2019-04-05T11:29:12.639Z,72640
2019-04-05T11:30:16.737Z,66528
2019-04-05T11:31:19.075Z,66208
2019-04-05T11:32:21.164Z,68608
2019-04-05T11:33:23.233Z,69664
2019-04-05T11:34:25.313Z,70720
2019-04-05T11:35:27.658Z,56160
2019-04-05T11:36:29.741Z,54112
2019-04-05T11:37:31.780Z,51040
2019-04-05T11:38:33.987Z,59648
2019-04-05T11:39:36.039Z,64608
2019-04-05T11:40:38.521Z,69184
2019-04-05T11:41:40.872Z,59648
2019-04-05T11:42:42.948Z,51040
2019-04-05T11:43:45.008Z,51232
2019-04-05T11:44:47.395Z,45248
2019-04-05T11:45:50.780Z,47392
2019-04-05T11:46:53.555Z,52224
2019-04-05T11:47:55.766Z,51168
2019-04-05T11:49:01.297Z,50752
2019-04-05T11:50:06.611Z,52736
2019-04-05T11:51:08.675Z,52288
2019-04-05T11:52:10.727Z,51616
2019-04-05T11:53:12.775Z,50752
2019-04-05T11:54:14.851Z,53920
2019-04-05T11:55:20.066Z,52256
2019-04-05T11:56:22.414Z,54272
2019-04-05T11:57:24.458Z,55008
2019-04-05T11:58:26.531Z,54720
2019-04-05T11:59:28.579Z,61952
2019-04-05T12:00:31.304Z,69600
2019-04-05T12:01:33.393Z,70560
2019-04-05T12:02:35.740Z,72096
2019-04-05T12:03:37.812Z,74144
2019-04-05T12:04:42.671Z,75456
2019-04-05T12:05:45.331Z,71008
2019-04-05T12:06:47.608Z,66400
2019-04-05T12:07:56.804Z,63584
2019-04-05T12:09:04.269Z,55520
2019-04-05T12:10:06.618Z,48736
2019-04-05T12:11:08.697Z,43360
2019-04-05T12:12:10.756Z,41120
2019-04-05T12:13:12.813Z,41568
2019-04-05T12:14:14.883Z,44320
2019-04-05T12:15:33.484Z,42208
2019-04-05T12:16:38.378Z,40672
2019-04-05T12:17:40.442Z,39296
2019-04-05T12:18:42.561Z,44864
2019-04-05T12:19:44.629Z,45376
2019-04-05T12:20:49.656Z,49440
2019-04-05T12:22:09.086Z,52320
2019-04-05T12:23:11.692Z,53216
2019-04-05T12:24:13.763Z,43648
2019-04-05T12:25:15.813Z,35328
2019-04-05T12:26:18.146Z,38528
2019-04-05T12:27:20.867Z,49216
2019-04-05T12:28:23.409Z,54560
2019-04-05T12:29:25.490Z,51776
2019-04-05T12:30:27.932Z,51232
2019-04-05T12:31:29.988Z,50752
2019-04-05T12:32:33.649Z,52640
2019-04-05T12:33:46.541Z,52416
2019-04-05T12:34:54.175Z,52192
2019-04-05T12:35:56.713Z,48448
2019-04-05T12:36:58.943Z,46624
2019-04-05T12:38:00.985Z,45632
2019-04-05T12:39:04.040Z,42688
2019-04-05T12:40:11.095Z,42432
2019-04-05T12:41:18.285Z,39648
2019-04-05T12:42:20.553Z,36960
2019-04-05T12:43:22.613Z,34272
2019-04-05T12:44:24.662Z,34016
2019-04-05T12:45:26.734Z,34560
2019-04-05T12:46:28.782Z,34656
2019-04-05T12:47:33.759Z,33312
2019-04-05T12:48:36.548Z,34048
2019-04-05T12:49:38.599Z,35232
2019-04-05T12:50:44.463Z,33824
2019-04-05T12:51:47.374Z,33696
2019-04-05T12:52:49.469Z,34752
2019-04-05T12:53:51.531Z,35232
2019-04-05T12:54:58.628Z,34912
2019-04-05T12:56:00.674Z,34144
2019-04-05T12:57:03.406Z,37632
2019-04-05T12:58:05.477Z,40704
2019-04-05T12:59:07.541Z,43808
2019-04-05T13:00:13.056Z,45888
2019-04-05T13:01:15.535Z,41952
2019-04-05T13:02:20.672Z,43744
2019-04-05T13:03:36.287Z,46912
2019-04-05T13:04:38.349Z,48448
2019-04-05T13:05:40.410Z,46848
2019-04-05T13:06:42.744Z,45984
2019-04-05T13:07:44.807Z,42752
2019-04-05T13:08:46.937Z,39968
2019-04-05T13:09:48.986Z,37920
2019-04-05T13:10:56.996Z,37344
2019-04-05T13:11:59.188Z,36928
2019-04-05T13:13:01.245Z,35904
2019-04-05T13:14:03.956Z,36128
2019-04-05T13:15:12.710Z,36160
2019-04-05T13:16:19.860Z,39680
2019-04-05T13:17:22.293Z,35968
2019-04-05T13:18:25.227Z,30880
2019-04-05T13:19:33.238Z,26752
2019-04-05T13:20:35.390Z,24736
2019-04-05T13:21:37.436Z,23584
2019-04-05T13:22:39.495Z,23424
2019-04-05T13:23:41.543Z,22944
2019-04-05T13:24:43.613Z,23072
2019-04-05T13:25:45.680Z,24672
2019-04-05T13:26:48.126Z,25280
2019-04-05T13:27:51.098Z,26240
2019-04-05T13:28:53.434Z,26816
2019-04-05T13:29:55.798Z,27776
2019-04-05T13:30:57.844Z,28832
2019-04-05T13:32:00.195Z,29984
2019-04-05T13:33:02.305Z,31680
2019-04-05T13:34:05.915Z,31712
2019-04-05T13:35:08.591Z,31232
2019-04-05T13:36:10.919Z,30144
2019-04-05T13:37:19.919Z,29952
2019-04-05T13:38:22.691Z,31200
2019-04-05T13:39:24.791Z,32736
2019-04-05T13:40:31.411Z,32992
2019-04-05T13:41:33.485Z,33088
2019-04-05T13:42:35.681Z,34336
2019-04-05T13:43:37.771Z,35744
2019-04-05T13:44:39.837Z,36832
2019-04-05T13:45:41.900Z,38816
2019-04-05T13:46:43.949Z,40224
2019-04-05T13:47:46.277Z,40096
2019-04-05T13:48:48.335Z,38560
2019-04-05T13:49:50.382Z,36352
2019-04-05T13:50:52.614Z,33312
2019-04-05T13:51:54.975Z,31392
2019-04-05T13:52:57.051Z,27488
2019-04-05T13:53:59.362Z,27232
2019-04-05T13:55:01.708Z,26592
2019-04-05T13:56:03.750Z,27264
2019-04-05T13:57:06.087Z,27584
2019-04-05T13:58:12.876Z,26400
2019-04-05T13:59:15.513Z,26688
2019-04-05T14:00:18.391Z,26944
2019-04-05T14:01:21.382Z,25216
2019-04-05T14:02:24.281Z,23712
2019-04-05T14:03:26.332Z,22368
2019-04-05T14:04:29.716Z,21824
2019-04-05T14:05:31.893Z,21856
2019-04-05T14:06:33.954Z,24032
2019-04-05T14:07:36.302Z,23008